createdAt,value
2019-02-21T00:00:33.074Z,17.73
2019-02-21T00:19:26.789Z,18.10
2019-02-21T00:22:04.096Z,17.37
2019-02-21T00:24:32.496Z,19.23
2019-02-21T00:27:05.256Z,17.40
2019-02-21T00:29:33.681Z,19.60
2019-02-21T00:32:04.830Z,19.13
2019-02-21T00:34:33.460Z,17.83
2019-02-21T00:37:03.497Z,16.93
2019-02-21T00:39:34.911Z,16.30
2019-02-21T00:42:07.786Z,16.70
2019-02-21T00:44:39.118Z,17.47
2019-02-21T00:47:10.505Z,18.57
2019-02-21T00:49:43.698Z,18.40
2019-02-21T00:52:12.045Z,18.27
2019-02-21T00:54:46.164Z,17.33
2019-02-21T00:57:16.447Z,17.87
2019-02-21T00:59:58.426Z,19.23
2019-02-21T01:02:31.357Z,19.37
2019-02-21T01:05:02.877Z,18.60
2019-02-21T01:07:35.800Z,19.17
2019-02-21T01:10:10.845Z,18.17
2019-02-21T01:12:40.911Z,16.40
2019-02-21T01:15:10.580Z,18.27
2019-02-21T01:17:43.058Z,20.23
2019-02-21T01:20:11.395Z,19.83
2019-02-21T01:22:45.961Z,21.13
2019-02-21T01:25:14.370Z,17.27
2019-02-21T01:27:48.060Z,21.03
2019-02-21T01:30:26.713Z,19.30
2019-02-21T01:32:56.690Z,16.80
2019-02-21T01:35:25.797Z,16.87
2019-02-21T01:37:54.186Z,15.47
2019-02-21T01:40:28.710Z,15.30
2019-02-21T01:43:03.134Z,15.87
2019-02-21T01:45:31.521Z,17.23
2019-02-21T01:48:01.445Z,17.70
2019-02-21T01:50:35.305Z,17.53
2019-02-21T01:53:03.704Z,16.97
2019-02-21T01:55:35.105Z,17.00
2019-02-21T01:58:06.482Z,16.43
2019-02-21T02:00:34.865Z,15.43
2019-02-21T02:03:05.929Z,15.53
2019-02-21T02:05:35.958Z,15.10
2019-02-21T02:08:07.085Z,15.00
2019-02-21T02:10:35.473Z,17.50
2019-02-21T02:13:06.817Z,17.10
2019-02-21T02:15:36.837Z,19.03
2019-02-21T02:18:05.443Z,19.57
2019-02-21T02:20:33.853Z,18.67
2019-02-21T02:23:10.906Z,17.70
2019-02-21T02:25:44.770Z,18.37
2019-02-21T02:28:22.420Z,20.50
2019-02-21T02:30:50.818Z,20.37
2019-02-21T02:33:19.451Z,20.33
2019-02-21T02:36:00.724Z,21.40
2019-02-21T02:38:33.818Z,21.13
2019-02-21T02:41:02.214Z,24.50
2019-02-21T02:43:32.241Z,23.97
2019-02-21T02:46:00.657Z,25.13
2019-02-21T02:48:31.765Z,25.90
2019-02-21T02:51:07.366Z,25.67
2019-02-21T02:53:38.885Z,24.20
2019-02-21T02:56:11.610Z,25.20
2019-02-21T02:58:57.711Z,24.27
2019-02-21T03:01:34.680Z,22.03
2019-02-21T03:04:01.066Z,22.43
2019-02-21T03:06:33.045Z,21.87
2019-02-21T03:09:05.057Z,20.80
2019-02-21T03:11:33.457Z,17.83
2019-02-21T03:14:02.025Z,20.53
2019-02-21T03:16:30.685Z,20.47
2019-02-21T03:19:00.730Z,19.07
2019-02-21T03:21:31.834Z,20.67
2019-02-21T03:24:01.889Z,19.53
2019-02-21T03:26:32.917Z,22.03
2019-02-21T03:29:07.121Z,23.17
2019-02-21T03:31:53.399Z,22.80
2019-02-21T03:34:10.122Z,21.63
2019-02-21T03:36:44.489Z,21.30
2019-02-21T03:39:12.860Z,22.83
2019-02-21T03:41:41.410Z,21.33
2019-02-21T03:44:12.501Z,20.83
2019-02-21T03:46:43.928Z,19.90
2019-02-21T03:49:16.397Z,17.33
2019-02-21T03:51:47.721Z,17.30
2019-02-21T03:54:20.939Z,17.60
2019-02-21T03:56:52.337Z,18.50
2019-02-21T03:59:23.433Z,18.70
2019-02-21T04:01:51.852Z,17.77
2019-02-21T04:04:26.277Z,17.83
2019-02-21T04:06:58.210Z,17.83
2019-02-21T04:09:29.510Z,18.43
2019-02-21T04:12:01.993Z,19.27
2019-02-21T04:14:33.177Z,22.43
2019-02-21T04:17:01.573Z,19.57
2019-02-21T04:19:35.809Z,22.73
2019-02-21T04:22:12.821Z,20.67
2019-02-21T04:24:41.374Z,21.37
2019-02-21T04:27:12.841Z,20.53
2019-02-21T04:29:41.243Z,20.30
2019-02-21T04:32:18.081Z,20.80
2019-02-21T04:34:49.186Z,18.80
2019-02-21T04:37:17.575Z,18.57
2019-02-21T04:39:48.690Z,19.33
2019-02-21T04:42:17.315Z,22.40
2019-02-21T04:44:51.455Z,23.80
2019-02-21T04:47:20.102Z,27.10
2019-02-21T04:50:00.632Z,27.60
2019-02-21T04:52:29.002Z,29.10
2019-02-21T04:55:08.685Z,30.40
2019-02-21T04:57:37.086Z,24.43
2019-02-21T05:00:16.036Z,26.17
2019-02-21T05:02:46.137Z,23.47
2019-02-21T05:05:19.940Z,23.13
2019-02-21T05:07:48.329Z,24.87
2019-02-21T05:10:18.605Z,26.00
2019-02-21T05:12:47.049Z,25.50
2019-02-21T05:15:18.351Z,24.90
2019-02-21T05:17:46.742Z,25.53
2019-02-21T05:20:16.785Z,24.13
2019-02-21T05:22:46.815Z,27.30
2019-02-21T05:25:15.214Z,28.23
2019-02-21T05:27:47.906Z,30.40
2019-02-21T05:30:26.470Z,31.97
2019-02-21T05:33:02.711Z,30.30
2019-02-21T05:35:50.941Z,27.87
2019-02-21T05:38:20.973Z,29.87
2019-02-21T05:41:04.394Z,30.37
2019-02-21T05:43:37.188Z,27.50
2019-02-21T05:46:09.134Z,29.03
2019-02-21T05:48:48.300Z,30.53
2019-02-21T05:51:21.307Z,33.63
2019-02-21T05:53:54.002Z,31.97
2019-02-21T05:56:26.877Z,30.53
2019-02-21T05:59:23.674Z,27.07
2019-02-21T06:01:59.671Z,25.53
2019-02-21T06:04:45.938Z,26.03
2019-02-21T06:07:24.983Z,26.43
2019-02-21T06:10:11.555Z,24.90
2019-02-21T06:12:50.150Z,26.90
2019-02-21T06:15:35.245Z,23.73
2019-02-21T06:18:10.841Z,24.13
2019-02-21T06:20:58.938Z,25.47
2019-02-21T06:23:41.089Z,24.63
2019-02-21T06:26:14.028Z,23.03
2019-02-21T06:28:53.592Z,22.37
2019-02-21T06:31:25.390Z,23.13
2019-02-21T06:33:55.424Z,22.33
2019-02-21T06:36:32.739Z,22.33
2019-02-21T06:39:01.151Z,23.23
2019-02-21T06:41:31.241Z,22.57
2019-02-21T06:43:59.632Z,22.60
2019-02-21T06:46:30.662Z,23.67
2019-02-21T06:48:59.285Z,23.20
2019-02-21T06:51:30.724Z,24.90
2019-02-21T06:54:02.070Z,24.30
2019-02-21T06:56:30.765Z,22.43
2019-02-21T06:59:02.361Z,24.37
2019-02-21T07:01:32.392Z,26.37
2019-02-21T07:04:09.547Z,25.30
2019-02-21T07:06:39.206Z,24.77
2019-02-21T07:09:12.857Z,25.93
2019-02-21T07:11:45.931Z,26.00
2019-02-21T07:14:16.001Z,24.07
2019-02-21T07:16:44.397Z,25.17
2019-02-21T07:19:13.741Z,24.47
2019-02-21T07:21:42.125Z,25.00
2019-02-21T07:24:10.522Z,24.23
2019-02-21T07:26:38.921Z,24.10
2019-02-21T07:29:10.050Z,26.67
2019-02-21T07:31:41.393Z,27.77
2019-02-21T07:34:09.778Z,25.40
2019-02-21T07:36:38.184Z,21.30
2019-02-21T07:39:18.370Z,20.90
2019-02-21T07:41:41.577Z,23.33
2019-02-21T07:44:12.369Z,19.37
2019-02-21T07:46:39.561Z,19.87
2019-02-21T07:49:13.671Z,18.33
2019-02-21T07:51:42.065Z,21.73
2019-02-21T07:54:10.453Z,19.37
2019-02-21T07:56:42.500Z,18.40
2019-02-21T07:59:14.368Z,20.97
2019-02-21T08:01:49.665Z,20.03
2019-02-21T08:04:19.303Z,18.57
2019-02-21T08:06:47.681Z,17.80
2019-02-21T08:09:18.877Z,17.83
2019-02-21T08:11:49.498Z,17.07
2019-02-21T08:14:18.138Z,18.30
2019-02-21T08:16:48.181Z,18.73
2019-02-21T08:19:17.979Z,18.17
2019-02-21T08:21:46.481Z,18.60
2019-02-21T08:24:15.564Z,17.97
2019-02-21T08:26:47.151Z,18.93
2019-02-21T08:29:20.546Z,18.70
2019-02-21T08:31:51.135Z,19.10
2019-02-21T08:34:24.132Z,18.80
2019-02-21T08:36:55.472Z,18.33
2019-02-21T08:39:23.866Z,18.67
2019-02-21T08:41:55.043Z,17.73
2019-02-21T08:44:22.384Z,17.00
2019-02-21T08:46:53.417Z,17.70
2019-02-21T08:49:20.898Z,16.67
2019-02-21T08:51:49.309Z,16.07
2019-02-21T08:54:19.585Z,17.37
2019-02-21T08:56:47.979Z,17.83
2019-02-21T08:59:16.371Z,16.93
2019-02-21T09:01:44.752Z,16.23
2019-02-21T09:04:26.448Z,16.53
2019-02-21T09:06:43.270Z,15.13
2019-02-21T09:09:11.671Z,15.77
2019-02-21T09:11:40.072Z,16.27
2019-02-21T09:14:11.419Z,16.73
2019-02-21T09:16:39.802Z,15.93
2019-02-21T09:19:08.677Z,15.87
2019-02-21T09:21:39.130Z,16.30
2019-02-21T09:24:07.756Z,15.20
2019-02-21T09:26:36.196Z,15.60
2019-02-21T09:29:04.638Z,15.50
2019-02-21T09:31:33.041Z,15.27
2019-02-21T09:34:01.668Z,15.63
2019-02-21T09:36:30.303Z,15.73
2019-02-21T09:38:58.686Z,15.23
2019-02-21T09:41:28.713Z,14.47
2019-02-21T09:43:57.692Z,16.60
2019-02-21T09:46:26.330Z,15.73
2019-02-21T09:48:54.718Z,16.97
2019-02-21T09:51:23.351Z,15.97
2019-02-21T09:53:53.049Z,15.70
2019-02-21T09:56:29.757Z,16.73
2019-02-21T09:58:52.808Z,17.13
2019-02-21T10:01:22.825Z,16.03
2019-02-21T10:03:51.222Z,15.60
2019-02-21T10:06:23.069Z,16.13
2019-02-21T10:08:51.860Z,15.30
2019-02-21T10:11:20.241Z,15.73
2019-02-21T10:13:48.625Z,15.30
2019-02-21T10:16:17.174Z,15.23
2019-02-21T10:18:45.674Z,15.87
2019-02-21T10:21:15.982Z,16.80
2019-02-21T10:23:47.318Z,15.23
2019-02-21T10:26:15.721Z,15.63
2019-02-21T10:28:45.227Z,16.00
2019-02-21T10:31:18.201Z,16.50
2019-02-21T10:33:47.475Z,18.00
2019-02-21T10:36:20.955Z,16.17
2019-02-21T10:38:52.258Z,17.00
2019-02-21T10:41:20.645Z,17.20
2019-02-21T10:43:49.039Z,16.83
2019-02-21T10:46:17.431Z,17.07
2019-02-21T10:48:48.479Z,16.53
2019-02-21T10:51:18.669Z,16.60
2019-02-21T10:53:53.021Z,16.10
2019-02-21T10:56:21.630Z,16.17
2019-02-21T10:58:50.046Z,16.27
2019-02-21T11:01:21.521Z,16.47
2019-02-21T11:03:54.490Z,17.13
2019-02-21T11:06:27.426Z,17.10
2019-02-21T11:08:59.264Z,15.73
2019-02-21T11:11:33.541Z,15.20
2019-02-21T11:14:09.397Z,16.30
2019-02-21T11:16:42.077Z,16.63
2019-02-21T11:19:20.207Z,16.53
2019-02-21T11:21:46.078Z,16.20
2019-02-21T11:24:14.470Z,17.43
2019-02-21T11:26:44.751Z,16.80
2019-02-21T11:29:19.152Z,16.20
2019-02-21T11:31:57.928Z,16.83
2019-02-21T11:34:31.935Z,15.87
2019-02-21T11:37:00.333Z,16.33
2019-02-21T11:39:32.497Z,17.40
2019-02-21T11:42:01.063Z,16.43
2019-02-21T11:44:32.323Z,15.70
2019-02-21T11:47:00.722Z,16.43
2019-02-21T11:49:33.831Z,16.47
2019-02-21T11:52:10.132Z,15.97
2019-02-21T11:54:41.371Z,16.73
2019-02-21T11:57:09.821Z,15.50
2019-02-21T11:59:38.738Z,16.57
2019-02-21T12:02:07.194Z,18.10
2019-02-21T12:04:41.435Z,16.87
2019-02-21T12:07:09.821Z,18.40
2019-02-21T12:09:38.222Z,17.03
2019-02-21T12:12:06.851Z,16.67
2019-02-21T12:14:35.353Z,16.73
2019-02-21T12:17:07.249Z,16.83
2019-02-21T12:19:38.402Z,17.73
2019-02-21T12:22:07.046Z,18.10
2019-02-21T12:24:38.451Z,16.77
2019-02-21T12:27:06.840Z,16.90
2019-02-21T12:29:35.241Z,17.63
2019-02-21T12:32:03.889Z,16.17
2019-02-21T12:34:35.313Z,17.47
2019-02-21T12:37:03.763Z,16.97
2019-02-21T12:39:32.437Z,17.73
2019-02-21T12:42:01.041Z,17.83
2019-02-21T12:44:29.428Z,18.60
2019-02-21T12:46:57.862Z,18.87
2019-02-21T12:49:29.218Z,18.73
2019-02-21T12:51:57.711Z,18.53
2019-02-21T12:54:31.607Z,18.43
2019-02-21T12:57:00.005Z,19.10
2019-02-21T12:59:28.392Z,18.87
2019-02-21T13:01:59.444Z,20.40
2019-02-21T13:04:33.353Z,19.10
2019-02-21T13:07:01.093Z,18.97
2019-02-21T13:09:29.765Z,18.07
2019-02-21T13:12:01.046Z,18.93
2019-02-21T13:14:29.556Z,19.20
2019-02-21T13:17:00.781Z,16.90
2019-02-21T13:19:33.925Z,18.07
2019-02-21T13:22:02.554Z,16.03
2019-02-21T13:24:30.949Z,18.87
2019-02-21T13:27:06.350Z,18.83
2019-02-21T13:29:34.763Z,18.00
2019-02-21T13:32:04.183Z,18.83
2019-02-21T13:34:35.526Z,19.23
2019-02-21T13:37:07.914Z,18.87
2019-02-21T13:39:39.077Z,18.07
2019-02-21T13:42:07.503Z,16.97
2019-02-21T13:44:35.893Z,18.07
2019-02-21T13:47:04.323Z,17.73
2019-02-21T13:49:33.062Z,16.77
2019-02-21T13:52:01.494Z,17.73
2019-02-21T13:54:29.881Z,17.30
2019-02-21T13:57:05.057Z,18.27
2019-02-21T13:59:35.002Z,20.13
2019-02-21T14:02:04.530Z,18.33
2019-02-21T14:04:33.165Z,19.00
2019-02-21T14:07:01.565Z,19.53
2019-02-21T14:09:29.980Z,18.90
2019-02-21T14:12:00.009Z,19.33
2019-02-21T14:14:30.981Z,19.10
2019-02-21T14:17:01.689Z,20.53
2019-02-21T14:19:33.283Z,19.33
2019-02-21T14:22:08.237Z,19.13
2019-02-21T14:24:37.382Z,19.07
2019-02-21T14:27:10.132Z,19.30
2019-02-21T14:29:39.630Z,19.43
2019-02-21T14:32:09.770Z,19.13
2019-02-21T14:34:43.748Z,19.47
2019-02-21T14:37:12.365Z,19.33
2019-02-21T14:39:41.013Z,18.63
2019-02-21T14:42:12.158Z,17.53
2019-02-21T14:44:41.008Z,17.57
2019-02-21T14:47:09.394Z,17.93
2019-02-21T14:49:40.703Z,18.57
2019-02-21T14:52:17.864Z,17.90
2019-02-21T14:54:46.253Z,17.17
2019-02-21T14:57:17.342Z,17.23
2019-02-21T14:59:45.733Z,19.40
2019-02-21T15:02:17.078Z,19.90
2019-02-21T15:04:46.849Z,19.82
2019-02-21T15:07:17.929Z,19.53
2019-02-21T15:09:46.417Z,18.70
2019-02-21T15:12:20.533Z,18.57
2019-02-21T15:14:51.882Z,19.00
2019-02-21T15:17:20.273Z,18.60
2019-02-21T15:19:48.670Z,19.30
2019-02-21T15:22:25.322Z,19.73
2019-02-21T15:24:58.034Z,19.13
2019-02-21T15:27:26.473Z,20.53
2019-02-21T15:29:57.643Z,21.13
2019-02-21T15:32:26.557Z,20.13
2019-02-21T15:34:59.392Z,19.83
2019-02-21T15:37:29.381Z,20.20
2019-02-21T15:39:57.789Z,20.70
2019-02-21T15:42:26.183Z,20.40
2019-02-21T15:44:54.577Z,19.97
2019-02-21T15:47:23.118Z,20.97
2019-02-21T15:49:52.275Z,21.10
2019-02-21T15:52:22.527Z,19.57
2019-02-21T15:54:53.714Z,21.70
2019-02-21T15:57:22.113Z,20.63
2019-02-21T15:59:56.356Z,21.00
2019-02-21T16:02:24.778Z,21.23
2019-02-21T16:04:53.176Z,20.07
2019-02-21T16:07:21.570Z,19.73
2019-02-21T16:09:49.974Z,22.00
2019-02-21T16:12:20.123Z,20.57
2019-02-21T16:14:49.469Z,20.27
2019-02-21T16:17:17.933Z,20.80
2019-02-21T16:19:46.406Z,22.10
2019-02-21T16:22:15.940Z,22.00
2019-02-21T16:24:44.328Z,22.93
2019-02-21T16:27:12.725Z,21.33
2019-02-21T16:29:42.773Z,21.43
2019-02-21T16:32:12.797Z,21.93
2019-02-21T16:34:41.205Z,21.57
2019-02-21T16:37:10.561Z,21.17
2019-02-21T16:39:38.962Z,21.07
2019-02-21T16:42:08.889Z,22.97
2019-02-21T16:44:41.612Z,23.00
2019-02-21T16:47:15.644Z,22.73
2019-02-21T16:49:45.377Z,22.63
2019-02-21T16:52:14.010Z,21.83
2019-02-21T16:54:42.637Z,22.03
2019-02-21T16:57:12.672Z,22.03
2019-02-21T16:59:43.271Z,23.03
2019-02-21T17:02:13.931Z,23.93
2019-02-21T17:04:42.588Z,23.27
2019-02-21T17:07:14.361Z,23.53
2019-02-21T17:09:41.107Z,24.23
2019-02-21T17:12:12.768Z,23.00
2019-02-21T17:14:45.341Z,23.47
2019-02-21T17:17:13.729Z,24.73
2019-02-21T17:19:45.177Z,25.67
2019-02-21T17:22:15.205Z,25.83
2019-02-21T17:24:46.309Z,25.83
2019-02-21T17:27:14.726Z,25.73
2019-02-21T17:29:47.455Z,25.03
2019-02-21T17:32:21.625Z,25.63
2019-02-21T17:34:54.493Z,27.40
2019-02-21T17:37:25.368Z,27.00
2019-02-21T17:39:54.501Z,26.73
2019-02-21T17:42:25.878Z,26.47
2019-02-21T17:44:54.268Z,27.60
2019-02-21T17:47:24.365Z,27.40
2019-02-21T17:49:54.380Z,28.10
2019-02-21T17:52:25.482Z,29.17
2019-02-21T17:54:56.797Z,28.80
2019-02-21T17:57:25.418Z,28.00
2019-02-21T17:59:53.805Z,28.13
2019-02-21T18:02:22.243Z,28.43
2019-02-21T18:04:57.289Z,27.50
2019-02-21T18:07:35.816Z,27.87
2019-02-21T18:09:55.932Z,29.63
2019-02-21T18:12:27.262Z,28.80
2019-02-21T18:14:57.307Z,29.80
2019-02-21T18:17:26.520Z,29.67
2019-02-21T18:19:55.605Z,29.33
2019-02-21T18:22:26.989Z,30.77
2019-02-21T18:25:01.196Z,30.10
2019-02-21T18:27:29.605Z,29.10
2019-02-21T18:30:04.866Z,29.47
2019-02-21T18:32:33.274Z,29.87
2019-02-21T18:35:01.694Z,29.30
2019-02-21T18:37:46.931Z,29.20
2019-02-21T18:40:20.786Z,28.30
2019-02-21T18:42:49.863Z,28.97
2019-02-21T18:45:19.650Z,29.73
2019-02-21T18:47:48.064Z,29.13
2019-02-21T18:50:16.518Z,30.10
2019-02-21T18:52:47.620Z,29.57
2019-02-21T18:55:19.344Z,28.00
2019-02-21T18:57:47.745Z,27.70
2019-02-21T19:00:28.380Z,28.73
2019-02-21T19:02:59.771Z,27.97
2019-02-21T19:05:36.036Z,29.20
2019-02-21T19:08:05.410Z,30.13
2019-02-21T19:10:33.001Z,29.73
2019-02-21T19:13:04.075Z,30.53
2019-02-21T19:15:33.821Z,29.13
2019-02-21T19:18:07.327Z,30.33
2019-02-21T19:20:36.478Z,28.20
2019-02-21T19:23:04.869Z,29.70
2019-02-21T19:25:33.528Z,28.97
2019-02-21T19:28:01.921Z,30.33
2019-02-21T19:30:51.723Z,28.67
2019-02-21T19:33:25.328Z,29.80
2019-02-21T19:35:53.955Z,29.13
2019-02-21T19:38:22.658Z,29.87
2019-02-21T19:40:51.043Z,30.40
2019-02-21T19:43:20.218Z,30.00
2019-02-21T19:45:48.606Z,30.57
2019-02-21T19:48:17.353Z,30.60
2019-02-21T19:50:45.734Z,29.23
2019-02-21T19:53:14.611Z,29.10
2019-02-21T19:55:47.365Z,28.53
2019-02-21T19:58:15.786Z,28.60
2019-02-21T20:00:45.391Z,28.07
2019-02-21T20:03:13.972Z,31.23
2019-02-21T20:05:42.373Z,29.47
2019-02-21T20:08:21.098Z,30.80
2019-02-21T20:10:43.745Z,30.97
2019-02-21T20:13:15.319Z,29.17
2019-02-21T20:15:48.040Z,30.37
2019-02-21T20:18:21.048Z,29.03
2019-02-21T20:20:49.435Z,30.00
2019-02-21T20:23:18.653Z,29.37
2019-02-21T20:25:47.289Z,29.17
2019-02-21T20:28:19.974Z,30.20
2019-02-21T20:30:51.600Z,28.37
2019-02-21T20:33:54.324Z,30.17
2019-02-21T20:36:22.722Z,28.10
2019-02-21T20:38:51.135Z,30.63
2019-02-21T20:41:21.097Z,29.97
2019-02-21T20:43:53.268Z,29.13
2019-02-21T20:46:24.098Z,30.30
2019-02-21T20:48:55.803Z,27.60
2019-02-21T20:51:24.422Z,26.33
2019-02-21T20:53:56.106Z,28.70
2019-02-21T20:56:34.477Z,27.57
2019-02-21T20:59:04.509Z,28.27
2019-02-21T21:01:33.158Z,29.33
2019-02-21T21:04:01.547Z,27.60
2019-02-21T21:06:30.433Z,29.63
2019-02-21T21:08:59.593Z,30.90
2019-02-21T21:11:32.233Z,29.30
2019-02-21T21:14:07.802Z,28.07
2019-02-21T21:16:37.825Z,29.50
2019-02-21T21:19:09.033Z,27.70
2019-02-21T21:21:37.437Z,27.77
2019-02-21T21:24:11.333Z,28.07
2019-02-21T21:26:42.653Z,30.20
2019-02-21T21:29:13.961Z,29.17
2019-02-21T21:31:42.354Z,28.43
2019-02-21T21:34:12.385Z,29.63
2019-02-21T21:36:42.413Z,30.63
2019-02-21T21:39:16.222Z,30.40
2019-02-21T21:41:44.617Z,31.60
2019-02-21T21:44:13.013Z,29.73
2019-02-21T21:46:44.367Z,29.53
2019-02-21T21:49:18.506Z,30.80
2019-02-21T21:51:50.116Z,30.07
2019-02-21T21:54:24.242Z,29.57
2019-02-21T21:56:54.263Z,31.47
2019-02-21T21:59:25.345Z,31.53
2019-02-21T22:01:55.373Z,32.57
2019-02-21T22:04:26.469Z,29.37
2019-02-21T22:06:56.756Z,29.73
2019-02-21T22:09:25.153Z,29.30
2019-02-21T22:11:53.539Z,29.23
2019-02-21T22:14:27.757Z,28.43
2019-02-21T22:16:59.116Z,29.57
2019-02-21T22:19:27.526Z,29.00
2019-02-21T22:21:57.822Z,29.67
2019-02-21T22:24:29.649Z,29.23
2019-02-21T22:27:03.565Z,28.60
2019-02-21T22:29:40.666Z,29.43
2019-02-21T22:32:09.173Z,28.70
2019-02-21T22:34:39.207Z,30.37
2019-02-21T22:37:07.602Z,29.17
2019-02-21T22:39:38.655Z,28.63
2019-02-21T22:42:08.570Z,30.37
2019-02-21T22:44:43.598Z,30.90
2019-02-21T22:47:17.969Z,30.43
2019-02-21T22:49:46.669Z,30.10
2019-02-21T22:52:19.649Z,29.30
2019-02-21T22:54:48.049Z,28.30
2019-02-21T22:57:21.877Z,28.60
2019-02-21T22:59:52.145Z,26.10
2019-02-21T23:02:21.501Z,25.67
2019-02-21T23:05:04.916Z,25.97
2019-02-21T23:07:36.874Z,24.77
2019-02-21T23:10:10.913Z,27.37
2019-02-21T23:12:42.273Z,25.53
2019-02-21T23:15:13.862Z,26.20
2019-02-21T23:17:45.137Z,24.47
2019-02-21T23:20:24.386Z,24.73
2019-02-21T23:23:01.004Z,25.30
2019-02-21T23:25:36.561Z,25.73
2019-02-21T23:28:08.134Z,25.03
2019-02-21T23:30:37.998Z,27.10
2019-02-21T23:33:10.989Z,26.13
2019-02-21T23:35:42.227Z,26.70
2019-02-21T23:38:13.570Z,27.90
2019-02-21T23:40:41.968Z,26.77
2019-02-21T23:43:10.590Z,28.57
2019-02-21T23:45:39.637Z,27.60
2019-02-21T23:48:08.034Z,27.97
2019-02-21T23:50:39.481Z,29.07
2019-02-21T23:53:07.906Z,28.73
2019-02-21T23:55:42.494Z,29.73
2019-02-21T23:58:15.543Z,31.63
